sensor_id;sensor_type;location;lat;lon;timestamp;temperature;humidity
63017;DHT22;50274;45.640;11.756;2023-08-08T00:02:10;21.00;52.10
63017;DHT22;50274;45.640;11.756;2023-08-08T00:04:35;20.90;52.20
63017;DHT22;50274;45.640;11.756;2023-08-08T00:07:01;21.00;52.10
63017;DHT22;50274;45.640;11.756;2023-08-08T00:09:27;20.90;52.10
63017;DHT22;50274;45.640;11.756;2023-08-08T00:11:53;20.90;52.10
63017;DHT22;50274;45.640;11.756;2023-08-08T00:14:19;20.90;52.20
63017;DHT22;50274;45.640;11.756;2023-08-08T00:16:44;20.80;52.30
63017;DHT22;50274;45.640;11.756;2023-08-08T00:19:10;20.80;52.40
63017;DHT22;50274;45.640;11.756;2023-08-08T00:21:36;20.80;52.40
63017;DHT22;50274;45.640;11.756;2023-08-08T00:24:02;20.80;52.40
63017;DHT22;50274;45.640;11.756;2023-08-08T00:26:28;20.80;52.30
63017;DHT22;50274;45.640;11.756;2023-08-08T00:28:54;20.80;52.30
63017;DHT22;50274;45.640;11.756;2023-08-08T00:31:19;20.80;52.30
63017;DHT22;50274;45.640;11.756;2023-08-08T00:33:45;20.70;52.40
63017;DHT22;50274;45.640;11.756;2023-08-08T00:36:11;20.70;52.50
63017;DHT22;50274;45.640;11.756;2023-08-08T00:38:37;20.60;52.60
63017;DHT22;50274;45.640;11.756;2023-08-08T00:41:03;20.60;52.60
63017;DHT22;50274;45.640;11.756;2023-08-08T00:43:30;20.60;52.70
63017;DHT22;50274;45.640;11.756;2023-08-08T00:45:57;20.60;52.70
63017;DHT22;50274;45.640;11.756;2023-08-08T00:48:23;20.60;52.60
63017;DHT22;50274;45.640;11.756;2023-08-08T00:50:50;20.60;52.60
63017;DHT22;50274;45.640;11.756;2023-08-08T00:53:17;20.60;52.60
63017;DHT22;50274;45.640;11.756;2023-08-08T00:55:44;20.60;52.60
63017;DHT22;50274;45.640;11.756;2023-08-08T00:58:10;20.60;52.50
63017;DHT22;50274;45.640;11.756;2023-08-08T01:00:36;20.60;52.60
63017;DHT22;50274;45.640;11.756;2023-08-08T01:03:02;20.60;52.60
63017;DHT22;50274;45.640;11.756;2023-08-08T01:05:36;20.60;52.70
63017;DHT22;50274;45.640;11.756;2023-08-08T01:08:05;20.60;52.70
63017;DHT22;50274;45.640;11.756;2023-08-08T01:10:41;20.60;52.70
63017;DHT22;50274;45.640;11.756;2023-08-08T01:13:18;20.60;52.80
63017;DHT22;50274;45.640;11.756;2023-08-08T01:15:46;20.60;52.80
63017;DHT22;50274;45.640;11.756;2023-08-08T01:18:14;20.60;52.80
63017;DHT22;50274;45.640;11.756;2023-08-08T01:20:41;20.50;52.80
63017;DHT22;50274;45.640;11.756;2023-08-08T01:25:49;20.50;52.90
63017;DHT22;50274;45.640;11.756;2023-08-08T01:28:15;20.50;53.00
63017;DHT22;50274;45.640;11.756;2023-08-08T01:30:41;20.50;53.00
63017;DHT22;50274;45.640;11.756;2023-08-08T01:33:08;20.40;52.90
63017;DHT22;50274;45.640;11.756;2023-08-08T01:35:38;20.40;52.80
63017;DHT22;50274;45.640;11.756;2023-08-08T01:40:36;20.30;53.00
63017;DHT22;50274;45.640;11.756;2023-08-08T01:43:05;20.30;53.00
63017;DHT22;50274;45.640;11.756;2023-08-08T01:45:31;20.20;52.90
63017;DHT22;50274;45.640;11.756;2023-08-08T01:47:57;20.20;52.90
63017;DHT22;50274;45.640;11.756;2023-08-08T01:50:23;20.20;52.70
63017;DHT22;50274;45.640;11.756;2023-08-08T01:52:48;20.20;52.60
63017;DHT22;50274;45.640;11.756;2023-08-08T01:55:14;20.20;52.40
63017;DHT22;50274;45.640;11.756;2023-08-08T01:57:40;20.20;52.10
63017;DHT22;50274;45.640;11.756;2023-08-08T02:00:07;20.20;51.70
63017;DHT22;50274;45.640;11.756;2023-08-08T02:02:33;20.20;51.60
63017;DHT22;50274;45.640;11.756;2023-08-08T02:05:01;20.10;51.30
63017;DHT22;50274;45.640;11.756;2023-08-08T02:07:27;20.10;51.10
63017;DHT22;50274;45.640;11.756;2023-08-08T02:09:53;20.00;51.10
63017;DHT22;50274;45.640;11.756;2023-08-08T02:12:19;20.00;51.00
63017;DHT22;50274;45.640;11.756;2023-08-08T02:14:45;20.00;50.90
63017;DHT22;50274;45.640;11.756;2023-08-08T02:17:10;20.00;50.70
63017;DHT22;50274;45.640;11.756;2023-08-08T02:19:36;20.00;50.30
63017;DHT22;50274;45.640;11.756;2023-08-08T02:22:02;20.00;50.20
63017;DHT22;50274;45.640;11.756;2023-08-08T02:24:28;20.00;50.10
63017;DHT22;50274;45.640;11.756;2023-08-08T02:26:54;20.00;49.90
63017;DHT22;50274;45.640;11.756;2023-08-08T02:29:19;20.00;49.50
63017;DHT22;50274;45.640;11.756;2023-08-08T02:31:45;19.90;49.30
63017;DHT22;50274;45.640;11.756;2023-08-08T02:34:11;19.90;49.20
63017;DHT22;50274;45.640;11.756;2023-08-08T02:36:37;19.90;49.00
63017;DHT22;50274;45.640;11.756;2023-08-08T02:39:03;19.90;48.90
63017;DHT22;50274;45.640;11.756;2023-08-08T02:41:28;19.80;48.70
63017;DHT22;50274;45.640;11.756;2023-08-08T02:43:54;19.80;48.30
63017;DHT22;50274;45.640;11.756;2023-08-08T02:46:20;19.80;48.50
63017;DHT22;50274;45.640;11.756;2023-08-08T02:48:46;19.70;48.40
63017;DHT22;50274;45.640;11.756;2023-08-08T02:51:12;19.70;48.40
63017;DHT22;50274;45.640;11.756;2023-08-08T02:53:37;19.70;48.00
63017;DHT22;50274;45.640;11.756;2023-08-08T02:56:03;19.70;48.10
63017;DHT22;50274;45.640;11.756;2023-08-08T02:58:29;19.70;48.00
63017;DHT22;50274;45.640;11.756;2023-08-08T03:00:55;19.70;47.90
63017;DHT22;50274;45.640;11.756;2023-08-08T03:03:21;19.70;47.90
63017;DHT22;50274;45.640;11.756;2023-08-08T03:05:46;19.60;47.70
63017;DHT22;50274;45.640;11.756;2023-08-08T03:08:12;19.60;47.40
63017;DHT22;50274;45.640;11.756;2023-08-08T03:10:38;19.60;47.30
63017;DHT22;50274;45.640;11.756;2023-08-08T03:13:04;19.60;47.40
63017;DHT22;50274;45.640;11.756;2023-08-08T03:15:30;19.60;47.40
63017;DHT22;50274;45.640;11.756;2023-08-08T03:17:56;19.50;47.50
63017;DHT22;50274;45.640;11.756;2023-08-08T03:20:22;19.50;47.60
63017;DHT22;50274;45.640;11.756;2023-08-08T03:22:48;19.50;47.50
63017;DHT22;50274;45.640;11.756;2023-08-08T03:25:13;19.60;47.60
63017;DHT22;50274;45.640;11.756;2023-08-08T03:27:39;19.60;47.60
63017;DHT22;50274;45.640;11.756;2023-08-08T03:30:05;19.50;47.70
63017;DHT22;50274;45.640;11.756;2023-08-08T03:32:32;19.50;47.70
63017;DHT22;50274;45.640;11.756;2023-08-08T03:34:58;19.50;47.80
63017;DHT22;50274;45.640;11.756;2023-08-08T03:37:23;19.50;47.90
63017;DHT22;50274;45.640;11.756;2023-08-08T03:39:49;19.50;47.90
63017;DHT22;50274;45.640;11.756;2023-08-08T03:42:15;19.50;47.80
63017;DHT22;50274;45.640;11.756;2023-08-08T03:44:41;19.50;47.80
63017;DHT22;50274;45.640;11.756;2023-08-08T03:47:07;19.50;48.00
63017;DHT22;50274;45.640;11.756;2023-08-08T03:49:33;19.50;48.10
63017;DHT22;50274;45.640;11.756;2023-08-08T03:51:59;19.50;48.20
63017;DHT22;50274;45.640;11.756;2023-08-08T03:54:24;19.50;48.20
63017;DHT22;50274;45.640;11.756;2023-08-08T03:56:50;19.60;48.30
63017;DHT22;50274;45.640;11.756;2023-08-08T03:59:16;19.50;48.30
63017;DHT22;50274;45.640;11.756;2023-08-08T04:01:42;19.50;48.30
63017;DHT22;50274;45.640;11.756;2023-08-08T04:04:07;19.50;48.40
63017;DHT22;50274;45.640;11.756;2023-08-08T04:06:33;19.50;48.50
63017;DHT22;50274;45.640;11.756;2023-08-08T04:08:59;19.50;48.70
63017;DHT22;50274;45.640;11.756;2023-08-08T04:11:26;19.50;48.90
63017;DHT22;50274;45.640;11.756;2023-08-08T04:13:52;19.60;49.00
63017;DHT22;50274;45.640;11.756;2023-08-08T04:16:18;19.60;49.10
63017;DHT22;50274;45.640;11.756;2023-08-08T04:18:43;19.50;49.20
63017;DHT22;50274;45.640;11.756;2023-08-08T04:21:09;19.60;49.30
63017;DHT22;50274;45.640;11.756;2023-08-08T04:23:35;19.60;49.30
63017;DHT22;50274;45.640;11.756;2023-08-08T04:26:01;19.60;49.20
63017;DHT22;50274;45.640;11.756;2023-08-08T04:28:27;19.60;49.20
63017;DHT22;50274;45.640;11.756;2023-08-08T04:30:52;19.60;49.20
63017;DHT22;50274;45.640;11.756;2023-08-08T04:33:18;19.60;49.20
63017;DHT22;50274;45.640;11.756;2023-08-08T04:35:44;19.60;49.20
63017;DHT22;50274;45.640;11.756;2023-08-08T04:38:10;19.60;49.10
63017;DHT22;50274;45.640;11.756;2023-08-08T04:40:35;19.60;49.00
63017;DHT22;50274;45.640;11.756;2023-08-08T04:43:01;19.50;49.00
63017;DHT22;50274;45.640;11.756;2023-08-08T04:45:27;19.50;49.00
63017;DHT22;50274;45.640;11.756;2023-08-08T04:47:54;19.50;49.10
63017;DHT22;50274;45.640;11.756;2023-08-08T04:50:20;19.50;49.20
63017;DHT22;50274;45.640;11.756;2023-08-08T04:52:46;19.50;49.30
63017;DHT22;50274;45.640;11.756;2023-08-08T04:55:12;19.60;49.30
63017;DHT22;50274;45.640;11.756;2023-08-08T04:57:38;19.60;49.30
63017;DHT22;50274;45.640;11.756;2023-08-08T05:00:04;19.60;49.30
63017;DHT22;50274;45.640;11.756;2023-08-08T05:02:33;19.60;49.40
63017;DHT22;50274;45.640;11.756;2023-08-08T05:04:59;19.60;49.50
63017;DHT22;50274;45.640;11.756;2023-08-08T05:07:26;19.70;49.50
63017;DHT22;50274;45.640;11.756;2023-08-08T05:09:52;19.70;49.60
63017;DHT22;50274;45.640;11.756;2023-08-08T05:12:18;19.80;49.70
63017;DHT22;50274;45.640;11.756;2023-08-08T05:14:44;19.80;49.80
63017;DHT22;50274;45.640;11.756;2023-08-08T05:17:10;19.80;49.80
63017;DHT22;50274;45.640;11.756;2023-08-08T05:19:36;19.80;49.90
63017;DHT22;50274;45.640;11.756;2023-08-08T05:22:02;19.90;50.00
63017;DHT22;50274;45.640;11.756;2023-08-08T05:24:27;19.90;50.20
63017;DHT22;50274;45.640;11.756;2023-08-08T05:26:53;20.00;50.30
63017;DHT22;50274;45.640;11.756;2023-08-08T05:29:19;20.00;50.50
63017;DHT22;50274;45.640;11.756;2023-08-08T05:31:46;20.10;50.60
63017;DHT22;50274;45.640;11.756;2023-08-08T05:34:13;20.10;50.70
63017;DHT22;50274;45.640;11.756;2023-08-08T05:36:39;20.10;50.70
63017;DHT22;50274;45.640;11.756;2023-08-08T05:39:05;20.20;50.70
63017;DHT22;50274;45.640;11.756;2023-08-08T05:41:33;20.20;50.70
63017;DHT22;50274;45.640;11.756;2023-08-08T05:43:59;20.30;50.80
63017;DHT22;50274;45.640;11.756;2023-08-08T05:46:24;20.30;50.80
63017;DHT22;50274;45.640;11.756;2023-08-08T05:48:50;20.40;51.00
63017;DHT22;50274;45.640;11.756;2023-08-08T05:51:16;20.50;50.90
63017;DHT22;50274;45.640;11.756;2023-08-08T05:53:42;20.50;50.90
63017;DHT22;50274;45.640;11.756;2023-08-08T05:56:08;20.60;50.90
63017;DHT22;50274;45.640;11.756;2023-08-08T05:58:34;20.60;50.90
63017;DHT22;50274;45.640;11.756;2023-08-08T06:01:02;20.60;50.90
63017;DHT22;50274;45.640;11.756;2023-08-08T06:03:31;20.60;50.90
63017;DHT22;50274;45.640;11.756;2023-08-08T06:05:57;20.60;50.90
63017;DHT22;50274;45.640;11.756;2023-08-08T06:08:23;20.70;51.00
63017;DHT22;50274;45.640;11.756;2023-08-08T06:10:49;20.70;51.20
63017;DHT22;50274;45.640;11.756;2023-08-08T06:13:15;20.70;51.20
63017;DHT22;50274;45.640;11.756;2023-08-08T06:15:41;20.70;51.40
63017;DHT22;50274;45.640;11.756;2023-08-08T06:18:07;20.70;51.60
63017;DHT22;50274;45.640;11.756;2023-08-08T06:20:32;20.60;51.80
63017;DHT22;50274;45.640;11.756;2023-08-08T06:22:58;20.70;51.80
63017;DHT22;50274;45.640;11.756;2023-08-08T06:25:24;20.70;51.80
63017;DHT22;50274;45.640;11.756;2023-08-08T06:27:50;20.80;51.90
63017;DHT22;50274;45.640;11.756;2023-08-08T06:30:16;20.90;51.70
63017;DHT22;50274;45.640;11.756;2023-08-08T06:32:42;21.00;51.70
63017;DHT22;50274;45.640;11.756;2023-08-08T06:35:08;21.10;51.60
63017;DHT22;50274;45.640;11.756;2023-08-08T06:37:34;21.30;51.60
63017;DHT22;50274;45.640;11.756;2023-08-08T06:40:00;21.40;51.10
63017;DHT22;50274;45.640;11.756;2023-08-08T06:42:26;21.50;50.50
63017;DHT22;50274;45.640;11.756;2023-08-08T06:48:14;21.70;49.80
63017;DHT22;50274;45.640;11.756;2023-08-08T06:50:40;21.80;49.50
63017;DHT22;50274;45.640;11.756;2023-08-08T06:53:06;21.90;49.10
63017;DHT22;50274;45.640;11.756;2023-08-08T06:55:34;22.00;48.70
63017;DHT22;50274;45.640;11.756;2023-08-08T06:58:00;22.10;48.20
63017;DHT22;50274;45.640;11.756;2023-08-08T07:00:26;22.10;48.30
63017;DHT22;50274;45.640;11.756;2023-08-08T07:02:53;22.30;47.80
63017;DHT22;50274;45.640;11.756;2023-08-08T07:05:19;22.40;47.50
63017;DHT22;50274;45.640;11.756;2023-08-08T07:07:45;22.40;47.30
63017;DHT22;50274;45.640;11.756;2023-08-08T07:10:11;22.40;47.00
63017;DHT22;50274;45.640;11.756;2023-08-08T07:12:38;22.60;46.40
63017;DHT22;50274;45.640;11.756;2023-08-08T07:15:06;22.60;46.70
63017;DHT22;50274;45.640;11.756;2023-08-08T07:17:32;22.70;46.70
63017;DHT22;50274;45.640;11.756;2023-08-08T07:19:58;22.80;46.30
63017;DHT22;50274;45.640;11.756;2023-08-08T07:22:24;22.90;46.30
63017;DHT22;50274;45.640;11.756;2023-08-08T07:24:50;23.00;45.70
63017;DHT22;50274;45.640;11.756;2023-08-08T07:27:16;23.00;45.30
63017;DHT22;50274;45.640;11.756;2023-08-08T07:29:42;23.10;45.60
63017;DHT22;50274;45.640;11.756;2023-08-08T07:32:08;23.10;45.70
63017;DHT22;50274;45.640;11.756;2023-08-08T07:34:34;23.10;45.60
63017;DHT22;50274;45.640;11.756;2023-08-08T07:36:59;23.20;44.20
63017;DHT22;50274;45.640;11.756;2023-08-08T07:39:25;23.20;43.90
63017;DHT22;50274;45.640;11.756;2023-08-08T07:41:52;23.30;43.40
63017;DHT22;50274;45.640;11.756;2023-08-08T07:47:40;23.40;42.00
63017;DHT22;50274;45.640;11.756;2023-08-08T07:50:06;23.50;42.20
63017;DHT22;50274;45.640;11.756;2023-08-08T07:52:34;23.50;42.10
63017;DHT22;50274;45.640;11.756;2023-08-08T07:55:00;23.60;42.30
63017;DHT22;50274;45.640;11.756;2023-08-08T07:57:30;23.60;42.40
63017;DHT22;50274;45.640;11.756;2023-08-08T07:59:57;23.70;42.20
63017;DHT22;50274;45.640;11.756;2023-08-08T08:02:27;23.80;42.20
63017;DHT22;50274;45.640;11.756;2023-08-08T08:04:55;23.80;41.80
63017;DHT22;50274;45.640;11.756;2023-08-08T08:07:21;23.90;41.90
63017;DHT22;50274;45.640;11.756;2023-08-08T08:09:47;24.00;42.20
63017;DHT22;50274;45.640;11.756;2023-08-08T08:12:13;24.10;42.40
63017;DHT22;50274;45.640;11.756;2023-08-08T08:14:39;24.20;42.40
63017;DHT22;50274;45.640;11.756;2023-08-08T08:17:05;24.40;42.40
63017;DHT22;50274;45.640;11.756;2023-08-08T08:19:30;24.40;42.10
63017;DHT22;50274;45.640;11.756;2023-08-08T08:21:56;24.60;42.30
63017;DHT22;50274;45.640;11.756;2023-08-08T08:24:24;24.60;41.90
63017;DHT22;50274;45.640;11.756;2023-08-08T08:27:04;24.70;41.40
63017;DHT22;50274;45.640;11.756;2023-08-08T08:29:49;24.80;41.40
63017;DHT22;50274;45.640;11.756;2023-08-08T08:32:35;24.80;41.70
63017;DHT22;50274;45.640;11.756;2023-08-08T08:35:04;24.80;41.60
63017;DHT22;50274;45.640;11.756;2023-08-08T08:37:32;24.80;41.40
63017;DHT22;50274;45.640;11.756;2023-08-08T08:39:58;24.80;41.40
63017;DHT22;50274;45.640;11.756;2023-08-08T08:42:24;24.80;41.70
63017;DHT22;50274;45.640;11.756;2023-08-08T08:44:57;24.80;41.30
63017;DHT22;50274;45.640;11.756;2023-08-08T08:47:24;24.70;41.40
63017;DHT22;50274;45.640;11.756;2023-08-08T08:49:52;24.70;41.70
63017;DHT22;50274;45.640;11.756;2023-08-08T08:52:18;24.60;41.70
63017;DHT22;50274;45.640;11.756;2023-08-08T08:54:44;24.70;42.20
63017;DHT22;50274;45.640;11.756;2023-08-08T08:57:11;24.70;42.80
63017;DHT22;50274;45.640;11.756;2023-08-08T08:59:37;24.70;42.90
63017;DHT22;50274;45.640;11.756;2023-08-08T09:02:04;24.70;42.90
63017;DHT22;50274;45.640;11.756;2023-08-08T09:04:30;24.80;43.00
63017;DHT22;50274;45.640;11.756;2023-08-08T09:06:56;25.00;42.10
63017;DHT22;50274;45.640;11.756;2023-08-08T09:09:22;25.10;41.00
63017;DHT22;50274;45.640;11.756;2023-08-08T09:11:52;25.20;41.30
63017;DHT22;50274;45.640;11.756;2023-08-08T09:14:22;25.30;41.60
63017;DHT22;50274;45.640;11.756;2023-08-08T09:16:51;25.40;41.00
63017;DHT22;50274;45.640;11.756;2023-08-08T09:19:22;25.40;40.90
63017;DHT22;50274;45.640;11.756;2023-08-08T09:21:50;25.60;41.50
63017;DHT22;50274;45.640;11.756;2023-08-08T09:24:16;25.70;41.40
63017;DHT22;50274;45.640;11.756;2023-08-08T09:26:43;25.80;40.90
63017;DHT22;50274;45.640;11.756;2023-08-08T09:29:13;25.80;41.40
63017;DHT22;50274;45.640;11.756;2023-08-08T09:31:40;25.90;41.20
63017;DHT22;50274;45.640;11.756;2023-08-08T09:34:06;26.00;41.60
63017;DHT22;50274;45.640;11.756;2023-08-08T09:36:33;26.10;41.70
63017;DHT22;50274;45.640;11.756;2023-08-08T09:38:59;26.20;42.10
63017;DHT22;50274;45.640;11.756;2023-08-08T09:41:25;26.30;42.20
63017;DHT22;50274;45.640;11.756;2023-08-08T09:43:52;26.40;41.50
63017;DHT22;50274;45.640;11.756;2023-08-08T09:46:19;26.40;40.70
63017;DHT22;50274;45.640;11.756;2023-08-08T09:48:46;26.50;40.80
63017;DHT22;50274;45.640;11.756;2023-08-08T09:51:12;26.50;40.90
63017;DHT22;50274;45.640;11.756;2023-08-08T09:53:39;26.60;41.30
63017;DHT22;50274;45.640;11.756;2023-08-08T09:56:06;26.70;40.80
63017;DHT22;50274;45.640;11.756;2023-08-08T09:58:33;26.70;41.20
63017;DHT22;50274;45.640;11.756;2023-08-08T10:00:59;26.90;41.30
63017;DHT22;50274;45.640;11.756;2023-08-08T10:03:26;27.00;40.90
63017;DHT22;50274;45.640;11.756;2023-08-08T10:05:52;26.90;40.70
63017;DHT22;50274;45.640;11.756;2023-08-08T10:08:19;26.90;41.00
63017;DHT22;50274;45.640;11.756;2023-08-08T10:10:50;27.00;41.30
63017;DHT22;50274;45.640;11.756;2023-08-08T10:13:26;27.10;41.50
63017;DHT22;50274;45.640;11.756;2023-08-08T10:15:53;27.10;41.20
63017;DHT22;50274;45.640;11.756;2023-08-08T10:18:24;27.20;41.50
63017;DHT22;50274;45.640;11.756;2023-08-08T10:20:51;27.30;41.90
63017;DHT22;50274;45.640;11.756;2023-08-08T10:23:19;27.40;41.30
63017;DHT22;50274;45.640;11.756;2023-08-08T10:25:46;27.50;40.80
63017;DHT22;50274;45.640;11.756;2023-08-08T10:28:14;27.60;40.70
63017;DHT22;50274;45.640;11.756;2023-08-08T10:30:45;27.60;40.70
63017;DHT22;50274;45.640;11.756;2023-08-08T10:33:33;27.70;41.10
63017;DHT22;50274;45.640;11.756;2023-08-08T10:36:05;27.90;40.80
63017;DHT22;50274;45.640;11.756;2023-08-08T10:38:48;27.90;40.70
63017;DHT22;50274;45.640;11.756;2023-08-08T10:41:17;28.10;41.40
63017;DHT22;50274;45.640;11.756;2023-08-08T10:43:52;28.10;41.50
63017;DHT22;50274;45.640;11.756;2023-08-08T10:46:32;28.10;41.00
63017;DHT22;50274;45.640;11.756;2023-08-08T10:49:01;27.90;41.20
63017;DHT22;50274;45.640;11.756;2023-08-08T10:51:41;27.70;41.00
63017;DHT22;50274;45.640;11.756;2023-08-08T10:54:23;27.70;41.60
63017;DHT22;50274;45.640;11.756;2023-08-08T10:56:57;27.80;42.00
63017;DHT22;50274;45.640;11.756;2023-08-08T10:59:37;28.00;41.60
63017;DHT22;50274;45.640;11.756;2023-08-08T11:02:03;28.10;41.30
63017;DHT22;50274;45.640;11.756;2023-08-08T11:04:30;28.20;41.30
63017;DHT22;50274;45.640;11.756;2023-08-08T11:06:58;28.40;41.40
63017;DHT22;50274;45.640;11.756;2023-08-08T11:09:24;28.40;41.00
63017;DHT22;50274;45.640;11.756;2023-08-08T11:11:52;28.50;41.60
63017;DHT22;50274;45.640;11.756;2023-08-08T11:14:22;28.60;41.90
63017;DHT22;50274;45.640;11.756;2023-08-08T11:16:50;28.70;42.10
63017;DHT22;50274;45.640;11.756;2023-08-08T11:19:17;28.80;41.90
63017;DHT22;50274;45.640;11.756;2023-08-08T11:21:46;29.00;41.70
63017;DHT22;50274;45.640;11.756;2023-08-08T11:24:12;29.00;40.30
63017;DHT22;50274;45.640;11.756;2023-08-08T11:26:40;29.20;40.20
63017;DHT22;50274;45.640;11.756;2023-08-08T11:29:06;29.40;39.00
63017;DHT22;50274;45.640;11.756;2023-08-08T11:31:34;29.40;40.10
63017;DHT22;50274;45.640;11.756;2023-08-08T11:34:01;29.40;38.70
63017;DHT22;50274;45.640;11.756;2023-08-08T11:36:30;29.40;39.00
63017;DHT22;50274;45.640;11.756;2023-08-08T11:38:58;29.50;39.30
63017;DHT22;50274;45.640;11.756;2023-08-08T11:41:25;29.60;39.50
63017;DHT22;50274;45.640;11.756;2023-08-08T11:43:51;29.90;39.60
63017;DHT22;50274;45.640;11.756;2023-08-08T11:46:22;30.10;39.40
63017;DHT22;50274;45.640;11.756;2023-08-08T11:48:48;29.90;39.60
63017;DHT22;50274;45.640;11.756;2023-08-08T11:51:14;29.60;40.20
63017;DHT22;50274;45.640;11.756;2023-08-08T11:53:53;29.10;40.10
63017;DHT22;50274;45.640;11.756;2023-08-08T11:56:20;29.00;41.40
63017;DHT22;50274;45.640;11.756;2023-08-08T11:58:49;29.20;41.70
63017;DHT22;50274;45.640;11.756;2023-08-08T12:01:20;29.50;42.50
63017;DHT22;50274;45.640;11.756;2023-08-08T12:03:46;29.80;41.90
63017;DHT22;50274;45.640;11.756;2023-08-08T12:06:16;30.10;41.70
63017;DHT22;50274;45.640;11.756;2023-08-08T12:08:43;30.40;41.10
63017;DHT22;50274;45.640;11.756;2023-08-08T12:11:10;30.70;41.00
63017;DHT22;50274;45.640;11.756;2023-08-08T12:13:41;30.90;40.60
63017;DHT22;50274;45.640;11.756;2023-08-08T12:16:12;31.10;41.10
63017;DHT22;50274;45.640;11.756;2023-08-08T12:18:42;31.20;40.40
63017;DHT22;50274;45.640;11.756;2023-08-08T12:21:09;31.30;39.80
63017;DHT22;50274;45.640;11.756;2023-08-08T12:23:36;31.20;38.80
63017;DHT22;50274;45.640;11.756;2023-08-08T12:26:09;31.10;38.90
63017;DHT22;50274;45.640;11.756;2023-08-08T12:28:35;31.20;39.40
63017;DHT22;50274;45.640;11.756;2023-08-08T12:31:01;31.20;39.70
63017;DHT22;50274;45.640;11.756;2023-08-08T12:33:27;31.20;39.70
63017;DHT22;50274;45.640;11.756;2023-08-08T12:35:53;31.40;39.70
63017;DHT22;50274;45.640;11.756;2023-08-08T12:38:19;31.50;39.40
63017;DHT22;50274;45.640;11.756;2023-08-08T12:40:45;31.50;39.40
63017;DHT22;50274;45.640;11.756;2023-08-08T12:43:11;31.20;39.40
63017;DHT22;50274;45.640;11.756;2023-08-08T12:45:44;31.00;39.40
63017;DHT22;50274;45.640;11.756;2023-08-08T12:48:11;30.80;39.80
63017;DHT22;50274;45.640;11.756;2023-08-08T12:50:37;30.70;39.60
63017;DHT22;50274;45.640;11.756;2023-08-08T12:53:03;30.60;39.90
63017;DHT22;50274;45.640;11.756;2023-08-08T12:55:30;30.60;40.00
63017;DHT22;50274;45.640;11.756;2023-08-08T12:57:56;30.80;39.90
63017;DHT22;50274;45.640;11.756;2023-08-08T13:00:22;31.10;39.80
63017;DHT22;50274;45.640;11.756;2023-08-08T13:02:49;31.30;40.10
63017;DHT22;50274;45.640;11.756;2023-08-08T13:05:14;31.30;39.40
63017;DHT22;50274;45.640;11.756;2023-08-08T13:07:40;31.40;40.30
63017;DHT22;50274;45.640;11.756;2023-08-08T13:10:07;31.40;39.80
63017;DHT22;50274;45.640;11.756;2023-08-08T13:12:33;31.20;39.90
63017;DHT22;50274;45.640;11.756;2023-08-08T13:14:58;31.10;40.30
63017;DHT22;50274;45.640;11.756;2023-08-08T13:17:24;31.00;40.20
63017;DHT22;50274;45.640;11.756;2023-08-08T13:19:50;31.00;40.40
63017;DHT22;50274;45.640;11.756;2023-08-08T13:22:16;31.10;40.30
63017;DHT22;50274;45.640;11.756;2023-08-08T13:24:42;31.20;39.30
63017;DHT22;50274;45.640;11.756;2023-08-08T13:27:08;31.40;39.50
63017;DHT22;50274;45.640;11.756;2023-08-08T13:29:34;31.50;39.00
63017;DHT22;50274;45.640;11.756;2023-08-08T13:31:59;31.60;39.40
63017;DHT22;50274;45.640;11.756;2023-08-08T13:34:25;31.60;39.10
63017;DHT22;50274;45.640;11.756;2023-08-08T13:36:51;31.60;38.70
63017;DHT22;50274;45.640;11.756;2023-08-08T13:39:17;31.80;39.00
63017;DHT22;50274;45.640;11.756;2023-08-08T13:41:43;31.90;38.90
63017;DHT22;50274;45.640;11.756;2023-08-08T13:44:09;32.00;39.00
63017;DHT22;50274;45.640;11.756;2023-08-08T13:46:34;32.10;38.90
63017;DHT22;50274;45.640;11.756;2023-08-08T13:49:00;32.00;37.80
63017;DHT22;50274;45.640;11.756;2023-08-08T13:51:26;31.90;38.10
63017;DHT22;50274;45.640;11.756;2023-08-08T13:53:52;31.80;38.70
63017;DHT22;50274;45.640;11.756;2023-08-08T13:56:18;31.60;39.30
63017;DHT22;50274;45.640;11.756;2023-08-08T13:58:44;31.30;39.10
63017;DHT22;50274;45.640;11.756;2023-08-08T14:01:10;31.20;39.00
63017;DHT22;50274;45.640;11.756;2023-08-08T14:03:36;31.30;39.40
63017;DHT22;50274;45.640;11.756;2023-08-08T14:06:01;31.40;39.70
63017;DHT22;50274;45.640;11.756;2023-08-08T14:08:27;31.60;39.60
63017;DHT22;50274;45.640;11.756;2023-08-08T14:10:53;31.60;39.50
63017;DHT22;50274;45.640;11.756;2023-08-08T14:13:19;31.70;39.90
63017;DHT22;50274;45.640;11.756;2023-08-08T14:15:47;31.80;40.10
63017;DHT22;50274;45.640;11.756;2023-08-08T14:18:13;31.90;40.20
63017;DHT22;50274;45.640;11.756;2023-08-08T14:20:39;31.90;39.00
63017;DHT22;50274;45.640;11.756;2023-08-08T14:23:05;31.90;39.20
63017;DHT22;50274;45.640;11.756;2023-08-08T14:25:31;31.70;39.00
63017;DHT22;50274;45.640;11.756;2023-08-08T14:27:57;31.40;39.10
63017;DHT22;50274;45.640;11.756;2023-08-08T14:30:24;31.20;39.40
63017;DHT22;50274;45.640;11.756;2023-08-08T14:32:53;31.20;40.00
63017;DHT22;50274;45.640;11.756;2023-08-08T14:35:19;31.20;40.00
63017;DHT22;50274;45.640;11.756;2023-08-08T14:37:45;31.40;39.90
63017;DHT22;50274;45.640;11.756;2023-08-08T14:40:11;31.40;40.00
63017;DHT22;50274;45.640;11.756;2023-08-08T14:42:37;31.20;39.40
63017;DHT22;50274;45.640;11.756;2023-08-08T14:45:03;31.10;39.40
63017;DHT22;50274;45.640;11.756;2023-08-08T14:47:29;30.90;39.50
63017;DHT22;50274;45.640;11.756;2023-08-08T14:49:55;30.60;40.20
63017;DHT22;50274;45.640;11.756;2023-08-08T14:52:21;30.50;40.70
63017;DHT22;50274;45.640;11.756;2023-08-08T14:54:47;30.40;41.10
63017;DHT22;50274;45.640;11.756;2023-08-08T14:57:13;30.30;41.10
63017;DHT22;50274;45.640;11.756;2023-08-08T14:59:39;30.10;41.60
63017;DHT22;50274;45.640;11.756;2023-08-08T15:02:05;29.90;42.10
63017;DHT22;50274;45.640;11.756;2023-08-08T15:04:32;29.70;42.50
63017;DHT22;50274;45.640;11.756;2023-08-08T15:06:58;29.60;42.70
63017;DHT22;50274;45.640;11.756;2023-08-08T15:09:24;29.40;42.80
63017;DHT22;50274;45.640;11.756;2023-08-08T15:11:50;29.30;43.30
63017;DHT22;50274;45.640;11.756;2023-08-08T15:14:16;29.30;43.40
63017;DHT22;50274;45.640;11.756;2023-08-08T15:16:47;29.30;43.70
63017;DHT22;50274;45.640;11.756;2023-08-08T15:19:14;29.30;43.80
63017;DHT22;50274;45.640;11.756;2023-08-08T15:21:40;29.30;43.70
63017;DHT22;50274;45.640;11.756;2023-08-08T15:24:07;29.20;43.80
63017;DHT22;50274;45.640;11.756;2023-08-08T15:26:34;29.10;43.70